createdAt,value
2022-12-23T00:03:01.443Z,43.28
2022-12-23T00:06:12.488Z,41.83
2022-12-23T00:09:15.214Z,42.40
2022-12-23T00:12:36.766Z,53.85
2022-12-23T00:15:39.766Z,50.17
2022-12-23T00:18:43.761Z,49.13
2022-12-23T00:21:47.166Z,42.53
2022-12-23T00:24:50.097Z,47.73
2022-12-23T00:28:01.603Z,62.30
2022-12-23T00:31:07.859Z,49.40
2022-12-23T00:34:12.232Z,55.63
2022-12-23T00:37:15.221Z,62.97
2022-12-23T00:40:38.391Z,74.50
2022-12-23T00:43:41.389Z,59.60
2022-12-23T00:46:44.398Z,84.40
2022-12-23T00:49:47.360Z,71.60
2022-12-23T00:52:50.042Z,56.27
2022-12-23T00:55:53.120Z,88.37
2022-12-23T00:58:56.161Z,67.70
2022-12-23T01:02:17.903Z,57.67
2022-12-23T01:05:49.718Z,53.97
2022-12-23T01:08:52.763Z,40.17
2022-12-23T01:11:55.409Z,85.33
2022-12-23T01:14:58.703Z,53.08
2022-12-23T01:18:01.403Z,43.10
2022-12-23T01:21:07.376Z,37.83
2022-12-23T01:24:12.480Z,42.53
2022-12-23T01:27:15.508Z,43.10
2022-12-23T01:30:18.226Z,41.28
2022-12-23T01:33:21.537Z,45.25
2022-12-23T01:36:24.215Z,38.67
2022-12-23T01:39:27.221Z,43.87
2022-12-23T01:42:47.481Z,39.67
2022-12-23T01:45:50.688Z,43.50
2022-12-23T01:48:54.079Z,42.25
2022-12-23T01:51:57.098Z,36.78
2022-12-23T01:54:59.857Z,44.87
2022-12-23T01:58:26.044Z,39.27
2022-12-23T02:01:48.929Z,32.75
2022-12-23T02:04:53.098Z,39.88
2022-12-23T02:08:15.297Z,34.78
2022-12-23T02:11:33.489Z,34.53
2022-12-23T02:15:12.834Z,42.63
2022-12-23T02:18:44.500Z,40.22
2022-12-23T02:22:13.353Z,41.17
2022-12-23T02:25:31.453Z,53.35
2022-12-23T02:29:15.278Z,55.17
2022-12-23T02:32:50.503Z,44.87
2022-12-23T02:36:02.111Z,47.47
2022-12-23T02:39:15.696Z,46.97
2022-12-23T02:42:24.388Z,48.25
2022-12-23T02:45:45.827Z,48.13
2022-12-23T02:48:56.889Z,42.30
2022-12-23T02:52:03.921Z,43.75
2022-12-23T02:55:13.997Z,46.05
2022-12-23T02:58:21.216Z,42.60
2022-12-23T03:01:26.409Z,44.03
2022-12-23T03:04:29.492Z,46.87
2022-12-23T03:07:44.155Z,38.90
2022-12-23T03:11:02.163Z,39.95
2022-12-23T03:14:16.936Z,41.78
2022-12-23T03:17:48.542Z,47.93
2022-12-23T03:21:14.811Z,49.03
2022-12-23T03:24:30.757Z,64.82
2022-12-23T03:27:41.263Z,90.85
2022-12-23T03:30:49.803Z,100.20
2022-12-23T03:33:59.820Z,147.43
2022-12-23T03:37:06.853Z,100.57
2022-12-23T03:40:16.743Z,187.48
2022-12-23T03:43:27.333Z,152.27
2022-12-23T03:46:38.571Z,152.10
2022-12-23T03:50:12.366Z,150.27
2022-12-23T03:53:36.768Z,94.93
2022-12-23T03:56:46.365Z,81.70
2022-12-23T03:59:53.569Z,173.45
2022-12-23T04:03:12.449Z,150.27
2022-12-23T04:06:18.484Z,156.87
2022-12-23T04:09:23.084Z,79.57
2022-12-23T04:12:27.796Z,98.20
2022-12-23T04:15:30.997Z,99.60
2022-12-23T04:18:34.184Z,132.23
2022-12-23T04:21:37.356Z,93.93
2022-12-23T04:24:40.471Z,124.90
2022-12-23T04:27:43.517Z,89.68
2022-12-23T04:30:46.635Z,71.57
2022-12-23T04:33:49.412Z,107.28
2022-12-23T04:36:52.531Z,72.50
2022-12-23T04:39:55.191Z,81.37
2022-12-23T04:42:58.467Z,68.60
2022-12-23T04:46:01.166Z,47.47
2022-12-23T04:49:04.154Z,56.00
2022-12-23T04:52:08.361Z,47.40
2022-12-23T04:55:12.167Z,41.87
2022-12-23T04:58:14.839Z,48.42
2022-12-23T05:01:17.814Z,48.72
2022-12-23T05:04:20.568Z,81.90
2022-12-23T05:07:23.633Z,57.20
2022-12-23T05:10:26.388Z,41.30
2022-12-23T05:13:29.548Z,51.35
2022-12-23T05:16:34.281Z,107.20
2022-12-23T05:19:37.392Z,91.15
2022-12-23T05:22:40.172Z,43.80
2022-12-23T05:25:43.176Z,73.67
2022-12-23T05:28:46.949Z,61.25
2022-12-23T05:31:50.007Z,67.30
2022-12-23T05:34:52.979Z,73.72
2022-12-23T05:37:57.154Z,52.73
2022-12-23T05:40:59.955Z,85.17
2022-12-23T05:44:02.941Z,57.10
2022-12-23T05:47:06.300Z,60.20
2022-12-23T05:50:09.686Z,51.63
2022-12-23T05:53:12.433Z,55.27
2022-12-23T05:56:15.397Z,48.53
2022-12-23T05:59:18.255Z,64.30
2022-12-23T06:02:22.397Z,73.82
2022-12-23T06:05:25.775Z,45.67
2022-12-23T06:08:28.480Z,54.87
2022-12-23T06:11:31.531Z,38.70
2022-12-23T06:14:34.441Z,57.85
2022-12-23T06:17:37.657Z,41.50
2022-12-23T06:20:40.380Z,36.67
2022-12-23T06:23:43.476Z,36.97
2022-12-23T06:26:49.731Z,38.63
2022-12-23T06:29:56.526Z,39.80
2022-12-23T06:32:59.146Z,36.22
2022-12-23T06:36:02.282Z,50.08
2022-12-23T06:39:04.992Z,36.53
2022-12-23T06:42:08.030Z,36.17
2022-12-23T06:45:11.277Z,30.37
2022-12-23T06:48:14.356Z,40.15
2022-12-23T06:51:17.023Z,44.17
2022-12-23T06:54:21.000Z,92.83
2022-12-23T06:57:23.690Z,62.57
2022-12-23T07:00:26.772Z,194.98
2022-12-23T07:03:29.523Z,165.88
2022-12-23T07:06:32.909Z,76.50
2022-12-23T07:09:35.734Z,162.77
2022-12-23T07:12:39.477Z,158.53
2022-12-23T07:15:42.242Z,217.93
2022-12-23T07:18:45.372Z,180.55
2022-12-23T07:21:48.134Z,118.00
2022-12-23T07:24:53.957Z,106.93
2022-12-23T07:27:57.091Z,156.90
2022-12-23T07:31:00.230Z,163.05
2022-12-23T07:34:02.933Z,86.43
2022-12-23T07:37:06.077Z,74.45
2022-12-23T07:40:09.922Z,61.53
2022-12-23T07:43:13.670Z,153.97
2022-12-23T07:46:16.418Z,93.95
2022-12-23T07:49:19.430Z,74.20
2022-12-23T07:52:23.062Z,56.50
2022-12-23T07:55:26.294Z,53.27
2022-12-23T07:58:28.964Z,88.03
2022-12-23T08:01:32.167Z,63.05
2022-12-23T08:04:37.405Z,63.38
2022-12-23T08:07:45.239Z,61.25
2022-12-23T08:10:48.907Z,67.43
2022-12-23T08:13:52.943Z,61.07
2022-12-23T08:16:56.813Z,44.35
2022-12-23T08:19:59.739Z,55.38
2022-12-23T08:23:11.620Z,64.53
2022-12-23T08:26:19.527Z,57.20
2022-12-23T08:29:22.533Z,54.73
2022-12-23T08:32:28.655Z,57.35
2022-12-23T08:35:31.810Z,54.05
2022-12-23T08:38:35.915Z,84.25
2022-12-23T08:41:44.566Z,100.27
2022-12-23T08:44:47.330Z,46.97
2022-12-23T08:47:50.279Z,45.72
2022-12-23T08:50:53.067Z,46.20
2022-12-23T08:54:01.110Z,39.95
2022-12-23T08:57:04.259Z,42.67
2022-12-23T09:00:07.994Z,45.47
2022-12-23T09:03:11.829Z,39.78
2022-12-23T09:06:26.562Z,37.40
2022-12-23T09:09:32.844Z,41.20
2022-12-23T09:12:36.201Z,39.37
2022-12-23T09:15:45.709Z,38.87
2022-12-23T09:18:48.769Z,38.85
2022-12-23T09:21:51.555Z,45.60
2022-12-23T09:24:59.894Z,45.67
2022-12-23T09:28:07.409Z,41.67
2022-12-23T09:31:12.261Z,42.80
2022-12-23T09:34:15.204Z,44.38
2022-12-23T09:37:18.278Z,41.25
2022-12-23T09:40:22.063Z,39.33
2022-12-23T09:43:58.772Z,35.93
2022-12-23T09:47:05.150Z,34.40
2022-12-23T09:50:35.688Z,33.42
2022-12-23T09:54:16.611Z,30.20
2022-12-23T09:57:35.592Z,32.35
2022-12-23T10:01:00.736Z,29.60
2022-12-23T10:04:28.970Z,29.67
2022-12-23T10:07:37.760Z,29.40
2022-12-23T10:11:00.414Z,35.75
2022-12-23T10:14:12.070Z,32.83
2022-12-23T10:17:30.605Z,23.97
2022-12-23T10:21:20.326Z,20.73
2022-12-23T10:24:34.263Z,11.73
2022-12-23T10:27:41.977Z,16.30
2022-12-23T10:31:23.839Z,18.33
2022-12-23T10:34:33.454Z,17.13
2022-12-23T10:37:52.064Z,18.10
2022-12-23T10:41:08.928Z,18.70
2022-12-23T10:44:21.236Z,14.15
2022-12-23T10:47:45.265Z,17.95
2022-12-23T10:51:02.640Z,15.23
2022-12-23T10:54:10.536Z,16.50
2022-12-23T10:57:18.121Z,15.10
2022-12-23T11:00:24.374Z,15.55
2022-12-23T11:03:29.372Z,18.60
2022-12-23T11:06:37.612Z,17.13
2022-12-23T11:09:55.449Z,14.67
2022-12-23T11:12:58.972Z,14.35
2022-12-23T11:16:17.372Z,15.85
2022-12-23T11:19:21.449Z,14.57
2022-12-23T11:22:25.626Z,15.53
2022-12-23T11:25:38.361Z,18.87
2022-12-23T11:28:50.092Z,15.93
2022-12-23T11:31:53.076Z,15.65
2022-12-23T11:34:56.697Z,18.73
2022-12-23T11:38:02.043Z,15.00
2022-12-23T11:41:05.853Z,16.60
2022-12-23T11:44:31.138Z,15.23
2022-12-23T11:47:42.142Z,15.65
2022-12-23T11:50:44.837Z,15.10
2022-12-23T11:53:47.786Z,15.60
2022-12-23T11:56:53.157Z,13.43
2022-12-23T12:00:00.999Z,18.73
2022-12-23T12:03:07.318Z,14.13
2022-12-23T12:06:15.816Z,15.50
2022-12-23T12:09:19.071Z,15.73
2022-12-23T12:12:22.444Z,13.73
2022-12-23T12:15:48.992Z,15.55
2022-12-23T12:18:56.214Z,15.70
2022-12-23T12:22:06.063Z,12.98
2022-12-23T12:25:22.197Z,17.77
2022-12-23T12:28:32.911Z,17.70
2022-12-23T12:31:42.087Z,15.80
2022-12-23T12:34:57.603Z,15.93
2022-12-23T12:38:20.807Z,20.92
2022-12-23T12:41:29.236Z,19.43
2022-12-23T12:44:58.592Z,19.97
2022-12-23T12:48:31.506Z,18.98
2022-12-23T12:51:49.866Z,18.52
2022-12-23T12:55:13.763Z,17.45
2022-12-23T12:58:22.136Z,20.57
2022-12-23T13:01:53.931Z,22.77
2022-12-23T13:05:29.518Z,20.05
2022-12-23T13:08:38.213Z,20.17
2022-12-23T13:11:47.865Z,26.17
2022-12-23T13:15:15.500Z,25.57
2022-12-23T13:18:56.803Z,22.07
2022-12-23T13:22:15.248Z,15.82
2022-12-23T13:25:31.603Z,23.08
2022-12-23T13:28:46.572Z,28.33
2022-12-23T13:31:59.842Z,26.17
2022-12-23T13:35:31.327Z,23.33
2022-12-23T13:38:54.703Z,25.83
2022-12-23T13:42:05.612Z,27.58
2022-12-23T13:45:18.212Z,30.40
2022-12-23T13:48:26.776Z,28.20
2022-12-23T13:51:29.679Z,30.17
2022-12-23T13:54:46.609Z,31.75
2022-12-23T13:58:11.676Z,36.60
2022-12-23T14:01:14.250Z,31.48
2022-12-23T14:04:37.566Z,28.37
2022-12-23T14:07:45.093Z,39.57
2022-12-23T14:11:20.102Z,42.28
2022-12-23T14:14:25.279Z,42.20
2022-12-23T14:18:04.350Z,40.28
2022-12-23T14:21:36.360Z,44.77
2022-12-23T14:24:51.976Z,41.00
2022-12-23T14:27:57.311Z,41.03
2022-12-23T14:31:03.288Z,45.42
2022-12-23T14:34:18.055Z,43.95
2022-12-23T14:37:21.083Z,43.70
2022-12-23T14:40:38.922Z,45.17
2022-12-23T14:43:45.945Z,63.33
2022-12-23T14:46:48.704Z,47.95
2022-12-23T14:49:52.005Z,38.95
2022-12-23T14:53:02.932Z,42.17
2022-12-23T14:56:32.252Z,49.63
2022-12-23T15:00:01.620Z,50.33
2022-12-23T15:03:04.884Z,45.78
2022-12-23T15:06:08.731Z,46.92
2022-12-23T15:09:32.761Z,51.90
2022-12-23T15:12:38.832Z,53.20
2022-12-23T15:15:58.989Z,48.67
2022-12-23T15:19:19.443Z,51.10
2022-12-23T15:22:28.518Z,52.30
2022-12-23T15:25:39.772Z,52.27
2022-12-23T15:28:43.078Z,45.47
2022-12-23T15:31:50.714Z,38.35
2022-12-23T15:35:07.213Z,82.90
2022-12-23T15:38:15.177Z,68.28
2022-12-23T15:41:18.871Z,65.80
2022-12-23T15:44:24.469Z,68.03
2022-12-23T15:47:39.092Z,68.47
2022-12-23T15:50:42.306Z,80.80
2022-12-23T15:53:47.765Z,155.93
2022-12-23T15:56:53.783Z,113.70
2022-12-23T15:59:59.443Z,118.10
2022-12-23T16:03:06.473Z,104.68
2022-12-23T16:06:17.612Z,72.10
2022-12-23T16:09:20.231Z,64.55
2022-12-23T16:12:26.644Z,74.20
2022-12-23T16:15:33.327Z,82.57
2022-12-23T16:18:47.331Z,70.03
2022-12-23T16:21:50.908Z,63.75
2022-12-23T16:24:58.067Z,66.30
2022-12-23T16:28:11.279Z,64.17
2022-12-23T16:31:17.909Z,76.17
2022-12-23T16:34:20.797Z,67.00
2022-12-23T16:37:24.904Z,61.83
2022-12-23T16:40:27.651Z,53.95
2022-12-23T16:43:31.266Z,50.73
2022-12-23T16:46:37.906Z,51.00
2022-12-23T16:49:41.675Z,49.83
2022-12-23T16:52:45.935Z,51.60
2022-12-23T16:55:56.668Z,69.07
2022-12-23T16:59:03.996Z,50.80
2022-12-23T17:02:19.532Z,57.10
2022-12-23T17:05:23.459Z,68.95
2022-12-23T17:08:26.475Z,81.40
2022-12-23T17:11:40.575Z,78.37
2022-12-23T17:14:43.619Z,89.43
2022-12-23T17:17:47.543Z,79.70
2022-12-23T17:20:52.887Z,69.90
2022-12-23T17:24:11.096Z,64.80
2022-12-23T17:27:17.488Z,89.35
2022-12-23T17:30:23.067Z,85.33
2022-12-23T17:33:31.308Z,82.97
2022-12-23T17:36:35.495Z,82.60
2022-12-23T17:39:38.688Z,83.10
2022-12-23T17:42:42.181Z,75.55
2022-12-23T17:45:47.753Z,71.33
2022-12-23T17:48:53.513Z,72.97
2022-12-23T17:51:56.532Z,74.82
2022-12-23T17:54:59.231Z,80.50
2022-12-23T17:58:02.292Z,72.30
2022-12-23T18:01:05.303Z,99.93
2022-12-23T18:04:08.382Z,85.23
2022-12-23T18:07:12.737Z,105.03
2022-12-23T18:10:19.093Z,100.30
2022-12-23T18:13:21.953Z,106.35
2022-12-23T18:16:24.980Z,97.20
2022-12-23T18:19:27.655Z,102.73
2022-12-23T18:22:31.282Z,106.32
2022-12-23T18:25:34.006Z,105.60
2022-12-23T18:28:37.101Z,109.18
2022-12-23T18:31:51.239Z,110.87
2022-12-23T18:34:55.697Z,117.27
2022-12-23T18:38:02.163Z,77.10
2022-12-23T18:41:05.239Z,62.10
2022-12-23T18:44:17.604Z,70.85
2022-12-23T18:47:22.991Z,73.17
2022-12-23T18:50:26.229Z,65.57
2022-12-23T18:53:29.302Z,74.40
2022-12-23T18:56:31.901Z,92.47
2022-12-23T18:59:37.796Z,121.13
2022-12-23T19:02:40.707Z,110.57
2022-12-23T19:05:48.995Z,78.67
2022-12-23T19:08:51.699Z,72.37
2022-12-23T19:11:55.122Z,70.35
2022-12-23T19:14:58.034Z,75.85
2022-12-23T19:18:01.166Z,64.27
2022-12-23T19:21:05.185Z,58.33
2022-12-23T19:24:11.096Z,50.70
2022-12-23T19:27:13.803Z,56.22
2022-12-23T19:30:18.696Z,62.15
2022-12-23T19:33:21.867Z,57.77
2022-12-23T19:36:25.211Z,51.07
2022-12-23T19:39:28.046Z,51.72
2022-12-23T19:42:31.213Z,52.55
2022-12-23T19:45:35.411Z,47.72
2022-12-23T19:48:39.079Z,59.83
2022-12-23T19:51:41.910Z,67.63
2022-12-23T19:54:47.564Z,60.85
2022-12-23T19:57:52.133Z,48.70
2022-12-23T20:01:06.652Z,54.45
2022-12-23T20:04:10.716Z,50.07
2022-12-23T20:07:13.805Z,75.87
2022-12-23T20:10:18.235Z,74.37
2022-12-23T20:13:21.316Z,55.45
2022-12-23T20:16:25.150Z,58.60
2022-12-23T20:19:28.489Z,61.33
2022-12-23T20:22:31.927Z,70.90
2022-12-23T20:25:34.738Z,53.70
2022-12-23T20:28:38.648Z,45.65
2022-12-23T20:31:42.004Z,41.08
2022-12-23T20:34:45.218Z,42.17
2022-12-23T20:37:48.153Z,39.33
2022-12-23T20:40:51.195Z,42.47
2022-12-23T20:44:31.611Z,43.17
2022-12-23T20:47:18.532Z,40.10
2022-12-23T20:50:21.993Z,42.37
2022-12-23T20:53:25.153Z,39.00
2022-12-23T20:56:32.425Z,44.17
2022-12-23T20:59:35.496Z,42.83
2022-12-23T21:02:38.152Z,38.90
2022-12-23T21:05:41.674Z,39.40
2022-12-23T21:08:47.071Z,45.70
2022-12-23T21:11:50.174Z,94.30
2022-12-23T21:14:52.904Z,64.15
2022-12-23T21:17:56.111Z,56.83
2022-12-23T21:21:00.395Z,43.20
2022-12-23T21:24:06.377Z,65.67
2022-12-23T21:27:09.051Z,52.70
2022-12-23T21:30:12.331Z,39.00
2022-12-23T21:33:15.028Z,38.97
2022-12-23T21:36:21.006Z,35.33
2022-12-23T21:39:23.792Z,42.03
2022-12-23T21:42:27.704Z,51.50
2022-12-23T21:45:30.682Z,46.90
2022-12-23T21:48:36.077Z,44.85
2022-12-23T21:51:40.782Z,39.40
2022-12-23T21:54:46.347Z,37.33
2022-12-23T21:57:49.079Z,38.80
2022-12-23T22:00:52.843Z,37.33
2022-12-23T22:03:57.169Z,42.92
2022-12-23T22:06:59.895Z,33.70
2022-12-23T22:10:03.102Z,31.33
2022-12-23T22:13:06.762Z,37.42
2022-12-23T22:16:15.593Z,35.53
2022-12-23T22:19:18.386Z,25.10
2022-12-23T22:22:22.369Z,25.93
2022-12-23T22:25:25.604Z,11.30
2022-12-23T22:28:31.337Z,28.08
2022-12-23T22:31:58.266Z,27.67
2022-12-23T22:35:02.445Z,24.73
2022-12-23T22:38:06.826Z,26.40
2022-12-23T22:41:10.937Z,28.23
2022-12-23T22:44:15.927Z,26.00
2022-12-23T22:47:21.321Z,24.90
2022-12-23T22:50:25.850Z,24.75
2022-12-23T22:53:32.107Z,25.17
2022-12-23T22:56:36.972Z,22.33
2022-12-23T22:59:44.931Z,38.17
2022-12-23T23:02:49.934Z,37.88
2022-12-23T23:06:12.493Z,25.67
2022-12-23T23:09:20.595Z,26.13
2022-12-23T23:15:48.167Z,26.98
2022-12-23T23:18:54.130Z,30.52
2022-12-23T23:21:57.991Z,37.47
2022-12-23T23:25:02.173Z,33.87
2022-12-23T23:28:12.693Z,33.07
2022-12-23T23:34:43.717Z,29.33
2022-12-23T23:37:48.109Z,39.10
2022-12-23T23:40:56.907Z,31.87
2022-12-23T23:44:01.675Z,29.93
2022-12-23T23:47:06.388Z,29.40
2022-12-23T23:50:12.736Z,30.75
2022-12-23T23:53:16.951Z,30.05
2022-12-23T23:56:25.368Z,32.43
2022-12-23T23:59:31.065Z,31.00
